createdAt,value
2018-05-18T00:00:57.667Z,0.00
2018-05-18T00:01:57.663Z,0.00
2018-05-18T00:02:57.664Z,0.00
2018-05-18T00:03:57.661Z,0.00
2018-05-18T00:04:57.656Z,0.00
2018-05-18T00:05:57.651Z,0.00
2018-05-18T00:06:57.642Z,0.00
2018-05-18T00:07:57.637Z,0.00
2018-05-18T00:08:57.635Z,0.00
2018-05-18T00:09:57.630Z,0.00
2018-05-18T00:10:57.630Z,0.00
2018-05-18T00:11:57.626Z,0.00
2018-05-18T00:12:57.623Z,0.00
2018-05-18T00:13:57.619Z,0.00
2018-05-18T00:14:57.609Z,0.00
2018-05-18T00:15:57.606Z,0.00
2018-05-18T00:16:57.607Z,0.00
2018-05-18T00:17:57.603Z,0.00
2018-05-18T00:18:57.594Z,0.00
2018-05-18T00:19:57.589Z,0.00
2018-05-18T00:20:57.585Z,0.00
2018-05-18T00:21:57.581Z,0.00
2018-05-18T00:22:57.582Z,0.00
2018-05-18T00:23:57.576Z,0.00
2018-05-18T00:24:57.580Z,0.00
2018-05-18T00:25:57.570Z,0.00
2018-05-18T00:26:57.560Z,0.00
2018-05-18T00:27:57.556Z,0.00
2018-05-18T00:28:57.552Z,0.00
2018-05-18T00:29:57.548Z,0.00
2018-05-18T00:30:57.547Z,0.00
2018-05-18T00:31:57.544Z,0.00
2018-05-18T00:32:57.538Z,0.00
2018-05-18T00:33:57.532Z,0.00
2018-05-18T00:34:57.530Z,0.00
2018-05-18T00:35:57.526Z,0.00
2018-05-18T00:36:57.525Z,0.00
2018-05-18T00:37:57.522Z,0.00
2018-05-18T00:38:57.510Z,0.00
2018-05-18T00:39:57.515Z,0.00
2018-05-18T00:40:57.502Z,0.00
2018-05-18T00:41:57.498Z,0.00
2018-05-18T00:42:57.499Z,0.00
2018-05-18T00:43:57.494Z,0.00
2018-05-18T00:44:57.489Z,0.00
2018-05-18T00:45:57.486Z,0.00
2018-05-18T00:46:57.480Z,0.00
2018-05-18T00:47:57.472Z,0.00
2018-05-18T00:48:57.472Z,0.00
2018-05-18T00:49:57.475Z,0.00
2018-05-18T00:50:57.462Z,0.00
2018-05-18T00:51:57.454Z,0.00
2018-05-18T00:52:57.450Z,0.00
2018-05-18T00:53:57.446Z,0.00
2018-05-18T00:54:57.447Z,0.00
2018-05-18T00:55:57.442Z,0.00
2018-05-18T00:56:57.439Z,0.00
2018-05-18T00:57:57.435Z,0.00
2018-05-18T00:58:57.426Z,0.00
2018-05-18T00:59:57.420Z,0.00
2018-05-18T01:00:57.416Z,0.00
2018-05-18T01:01:57.412Z,0.00
2018-05-18T01:02:57.416Z,0.00
2018-05-18T01:03:57.411Z,0.00
2018-05-18T01:04:57.406Z,0.00
2018-05-18T01:05:57.396Z,0.00
2018-05-18T01:06:57.394Z,0.00
2018-05-18T01:07:57.390Z,0.00
2018-05-18T01:08:57.387Z,0.00
2018-05-18T01:09:57.387Z,0.00
2018-05-18T01:10:57.372Z,0.00
2018-05-18T01:11:57.368Z,0.00
2018-05-18T01:12:57.364Z,0.00
2018-05-18T01:13:57.359Z,0.00
2018-05-18T01:14:57.359Z,0.00
2018-05-18T01:15:57.435Z,0.00
2018-05-18T01:16:57.356Z,0.00
2018-05-18T01:17:57.348Z,0.00
2018-05-18T01:18:57.337Z,0.00
2018-05-18T01:19:57.343Z,0.00
2018-05-18T01:20:57.333Z,0.00
2018-05-18T01:21:57.329Z,0.00
2018-05-18T01:22:57.320Z,0.00
2018-05-18T01:23:57.321Z,0.00
2018-05-18T01:24:57.311Z,0.00
2018-05-18T01:25:57.312Z,0.00
2018-05-18T01:26:57.308Z,0.00
2018-05-18T01:27:57.303Z,0.00
2018-05-18T01:28:57.298Z,0.00
2018-05-18T01:29:57.293Z,0.00
2018-05-18T01:30:57.285Z,0.00
2018-05-18T01:31:57.280Z,0.00
2018-05-18T01:32:57.277Z,0.00
2018-05-18T01:33:57.272Z,0.00
2018-05-18T01:34:57.273Z,0.00
2018-05-18T01:35:57.268Z,0.00
2018-05-18T01:36:57.258Z,0.00
2018-05-18T01:37:57.255Z,0.00
2018-05-18T01:38:57.254Z,0.00
2018-05-18T01:39:57.250Z,0.00
2018-05-18T01:40:57.245Z,0.00
2018-05-18T01:41:57.242Z,0.00
2018-05-18T01:42:57.231Z,0.00
2018-05-18T01:43:57.227Z,0.00
2018-05-18T01:44:57.223Z,0.00
2018-05-18T01:45:57.218Z,0.00
2018-05-18T01:46:57.217Z,0.00
2018-05-18T01:47:57.217Z,0.00
2018-05-18T01:48:57.211Z,0.00
2018-05-18T01:49:57.205Z,0.00
2018-05-18T01:50:57.195Z,0.00
2018-05-18T01:51:57.192Z,0.00
2018-05-18T01:52:57.195Z,0.00
2018-05-18T01:53:57.188Z,0.00
2018-05-18T01:54:57.178Z,0.00
2018-05-18T01:55:57.177Z,0.00
2018-05-18T01:56:57.169Z,0.00
2018-05-18T01:57:57.165Z,0.00
2018-05-18T01:58:57.164Z,0.00
2018-05-18T01:59:57.162Z,0.00
2018-05-18T02:00:57.157Z,0.00
2018-05-18T02:01:57.152Z,0.00
2018-05-18T02:02:57.144Z,0.00
2018-05-18T02:03:57.138Z,0.00
2018-05-18T02:04:57.134Z,0.00
2018-05-18T02:05:57.129Z,0.00
2018-05-18T02:06:57.131Z,0.00
2018-05-18T02:07:57.126Z,0.00
2018-05-18T02:08:57.117Z,0.00
2018-05-18T02:09:57.112Z,0.00
2018-05-18T02:10:57.111Z,0.00
2018-05-18T02:11:57.110Z,0.00
2018-05-18T02:12:57.102Z,0.00
2018-05-18T02:13:57.099Z,0.00
2018-05-18T02:14:57.089Z,0.00
2018-05-18T02:15:57.084Z,0.00
2018-05-18T02:16:57.080Z,0.00
2018-05-18T02:17:57.076Z,0.00
2018-05-18T02:18:57.075Z,0.00
2018-05-18T02:19:57.070Z,0.00
2018-05-18T02:20:57.068Z,0.00
2018-05-18T02:21:57.062Z,0.00
2018-05-18T02:22:57.052Z,0.00
2018-05-18T02:23:57.049Z,0.00
2018-05-18T02:24:57.048Z,0.00
2018-05-18T02:25:57.045Z,0.00
2018-05-18T02:26:57.034Z,0.00
2018-05-18T02:27:57.030Z,0.00
2018-05-18T02:28:57.030Z,0.00
2018-05-18T02:29:57.021Z,0.00
2018-05-18T02:30:57.023Z,0.00
2018-05-18T02:31:57.017Z,0.00
2018-05-18T02:32:57.012Z,0.00
2018-05-18T02:33:57.010Z,0.00
2018-05-18T02:34:56.999Z,0.00
2018-05-18T02:35:56.995Z,0.00
2018-05-18T02:36:56.989Z,0.00
2018-05-18T02:37:56.987Z,0.00
2018-05-18T02:38:56.984Z,0.00
2018-05-18T02:39:56.981Z,0.00
2018-05-18T02:40:56.972Z,0.00
2018-05-18T02:41:56.968Z,0.00
2018-05-18T02:42:56.973Z,0.00
2018-05-18T02:43:56.963Z,0.00
2018-05-18T02:44:56.958Z,0.00
2018-05-18T02:45:56.955Z,0.00
2018-05-18T02:46:56.945Z,0.00
2018-05-18T02:47:56.941Z,0.00
2018-05-18T02:48:56.935Z,0.00
2018-05-18T02:49:56.931Z,0.00
2018-05-18T02:50:56.931Z,0.00
2018-05-18T02:51:56.925Z,0.00
2018-05-18T02:52:56.921Z,0.00
2018-05-18T02:53:56.922Z,0.00
2018-05-18T02:54:56.908Z,0.00
2018-05-18T02:55:56.905Z,0.00
2018-05-18T02:56:56.903Z,0.00
2018-05-18T02:57:56.898Z,0.00
2018-05-18T02:58:56.888Z,0.00
2018-05-18T02:59:56.884Z,0.00
2018-05-18T03:00:56.900Z,0.00
2018-05-18T03:01:56.879Z,0.00
2018-05-18T03:02:56.875Z,0.00
2018-05-18T03:03:56.870Z,0.00
2018-05-18T03:04:56.867Z,0.00
2018-05-18T03:05:56.865Z,0.00
2018-05-18T03:06:56.851Z,0.00
2018-05-18T03:07:56.846Z,4.00
2018-05-18T03:08:56.842Z,4.00
2018-05-18T03:09:56.837Z,4.00
2018-05-18T03:10:56.837Z,0.00
2018-05-18T03:11:56.833Z,0.00
2018-05-18T03:12:56.824Z,4.00
2018-05-18T03:13:56.820Z,4.00
2018-05-18T03:14:56.817Z,4.00
2018-05-18T03:15:56.813Z,4.00
2018-05-18T03:16:56.809Z,8.00
2018-05-18T03:17:56.804Z,4.00
2018-05-18T03:18:56.796Z,8.00
2018-05-18T03:19:56.790Z,8.00
2018-05-18T03:20:56.803Z,8.00
2018-05-18T03:21:56.781Z,8.00
2018-05-18T03:22:56.785Z,12.00
2018-05-18T03:23:56.775Z,12.00
2018-05-18T03:24:56.770Z,12.00
2018-05-18T03:25:56.772Z,16.00
2018-05-18T03:26:56.759Z,16.00
2018-05-18T03:27:56.751Z,20.00
2018-05-18T03:28:56.751Z,24.00
2018-05-18T03:29:56.746Z,24.00
2018-05-18T03:30:56.737Z,28.00
2018-05-18T03:31:56.737Z,32.00
2018-05-18T03:32:56.728Z,32.00
2018-05-18T03:33:56.725Z,40.00
2018-05-18T03:34:56.724Z,40.00
2018-05-18T03:35:56.717Z,44.00
2018-05-18T03:36:56.763Z,48.00
2018-05-18T03:37:56.708Z,52.00
2018-05-18T03:38:56.697Z,56.00
2018-05-18T03:39:56.697Z,64.00
2018-05-18T03:40:56.689Z,72.00
2018-05-18T03:41:56.684Z,76.00
2018-05-18T03:42:56.684Z,84.00
2018-05-18T03:43:56.679Z,92.00
2018-05-18T03:44:56.669Z,100.00
2018-05-18T03:45:56.665Z,108.00
2018-05-18T03:46:56.668Z,120.00
2018-05-18T03:47:56.660Z,132.00
2018-05-18T03:48:56.654Z,144.00
2018-05-18T03:49:56.650Z,156.00
2018-05-18T03:50:56.640Z,164.00
2018-05-18T03:51:56.635Z,176.00
2018-05-18T03:52:56.630Z,184.00
2018-05-18T03:53:56.625Z,188.00
2018-05-18T03:54:56.624Z,192.00
2018-05-18T03:55:56.619Z,208.00
2018-05-18T03:56:56.616Z,228.00
2018-05-18T03:57:56.612Z,244.00
2018-05-18T03:58:56.601Z,256.00
2018-05-18T03:59:56.596Z,260.00
2018-05-18T04:00:56.597Z,272.00
2018-05-18T04:01:56.594Z,280.00
2018-05-18T04:02:56.583Z,288.00
2018-05-18T04:03:56.576Z,296.00
2018-05-18T04:04:56.572Z,304.00
2018-05-18T04:05:56.568Z,316.00
2018-05-18T04:06:56.567Z,340.00
2018-05-18T04:07:56.562Z,360.00
2018-05-18T04:08:56.557Z,372.00
2018-05-18T04:09:56.552Z,392.00
2018-05-18T04:10:56.543Z,412.00
2018-05-18T04:11:56.540Z,420.00
2018-05-18T04:12:56.534Z,420.00
2018-05-18T04:13:56.529Z,432.00
2018-05-18T04:14:56.528Z,452.00
2018-05-18T04:15:56.524Z,484.00
2018-05-18T04:16:56.514Z,516.00
2018-05-18T04:17:56.509Z,524.00
2018-05-18T04:18:56.509Z,504.00
2018-05-18T04:19:56.521Z,516.00
2018-05-18T04:20:56.505Z,560.00
2018-05-18T04:21:56.495Z,600.00
2018-05-18T04:22:56.484Z,604.00
2018-05-18T04:23:56.479Z,600.00
2018-05-18T04:24:56.475Z,612.00
2018-05-18T04:25:56.470Z,616.00
2018-05-18T04:26:56.469Z,592.00
2018-05-18T04:27:56.464Z,568.00
2018-05-18T04:28:56.461Z,576.00
2018-05-18T04:29:56.457Z,628.00
2018-05-18T04:30:56.445Z,664.00
2018-05-18T04:31:56.441Z,692.00
2018-05-18T04:32:56.442Z,704.00
2018-05-18T04:33:56.438Z,700.00
2018-05-18T04:34:56.428Z,712.00
2018-05-18T04:35:56.422Z,736.00
2018-05-18T04:36:56.418Z,744.00
2018-05-18T04:37:56.415Z,752.00
2018-05-18T04:38:56.413Z,776.00
2018-05-18T04:39:56.407Z,800.00
2018-05-18T04:40:56.404Z,816.00
2018-05-18T04:41:56.398Z,836.00
2018-05-18T04:42:56.389Z,864.00
2018-05-18T04:43:56.385Z,912.00
2018-05-18T04:44:56.380Z,960.00
2018-05-18T04:45:56.375Z,988.00
2018-05-18T04:46:56.375Z,1000.00
2018-05-18T04:47:56.369Z,1036.00
2018-05-18T04:48:56.360Z,1100.00
2018-05-18T04:49:56.359Z,1180.00
2018-05-18T04:50:56.390Z,1256.00
2018-05-18T04:51:56.350Z,1276.00
2018-05-18T04:52:56.351Z,1272.00
2018-05-18T04:53:56.343Z,1268.00
2018-05-18T04:54:56.331Z,1280.00
2018-05-18T04:55:56.328Z,1280.00
2018-05-18T04:56:56.322Z,1312.00
2018-05-18T04:57:56.319Z,1356.00
2018-05-18T04:58:56.401Z,1388.00
2018-05-18T04:59:56.313Z,1460.00
2018-05-18T05:00:56.307Z,1580.00
2018-05-18T05:01:56.303Z,1692.00
2018-05-18T05:02:56.293Z,1840.00
2018-05-18T05:03:56.289Z,1964.00
2018-05-18T05:04:56.288Z,2072.00
2018-05-18T05:05:56.285Z,2132.00
2018-05-18T05:06:56.273Z,2164.00
2018-05-18T05:07:56.270Z,2288.00
2018-05-18T05:08:56.265Z,2468.00
2018-05-18T05:09:56.260Z,2592.00
2018-05-18T05:10:56.260Z,2652.00
2018-05-18T05:11:56.256Z,2652.00
2018-05-18T05:12:56.251Z,2680.00
2018-05-18T05:13:56.246Z,2684.00
2018-05-18T05:14:56.236Z,2700.00
2018-05-18T05:15:56.232Z,2792.00
2018-05-18T05:16:56.230Z,3036.00
2018-05-18T05:17:56.253Z,2788.00
2018-05-18T05:18:56.221Z,2668.00
2018-05-18T05:19:56.220Z,2508.00
2018-05-18T05:20:56.208Z,2432.00
2018-05-18T05:21:56.205Z,2408.00
2018-05-18T05:22:56.203Z,2484.00
2018-05-18T05:23:56.200Z,2640.00
2018-05-18T05:24:56.196Z,2800.00
2018-05-18T05:25:56.195Z,2872.00
2018-05-18T05:26:56.183Z,2980.00
2018-05-18T05:27:56.178Z,3196.00
2018-05-18T05:28:56.173Z,3336.00
2018-05-18T05:29:56.196Z,3388.00
2018-05-18T05:30:56.169Z,3408.00
2018-05-18T05:31:56.164Z,3680.00
2018-05-18T05:32:56.159Z,3996.00
2018-05-18T05:33:56.155Z,4132.00
2018-05-18T05:34:56.145Z,4068.00
2018-05-18T05:35:56.142Z,3804.00
2018-05-18T05:36:56.142Z,3500.00
2018-05-18T05:37:56.138Z,3836.00
2018-05-18T05:38:56.128Z,4116.00
2018-05-18T05:39:56.124Z,4428.00
2018-05-18T05:40:56.121Z,4408.00
2018-05-18T05:41:56.117Z,4284.00
2018-05-18T05:42:56.118Z,4404.00
2018-05-18T05:43:56.113Z,4640.00
2018-05-18T05:44:56.108Z,5000.00
2018-05-18T05:45:56.104Z,5104.00
2018-05-18T05:46:56.175Z,5112.00
2018-05-18T05:47:56.092Z,5196.00
2018-05-18T05:48:56.090Z,5516.00
2018-05-18T05:49:56.085Z,7580.00
2018-05-18T05:50:56.084Z,7284.00
2018-05-18T05:51:56.081Z,7452.00
2018-05-18T05:52:56.209Z,7764.00
2018-05-18T05:53:56.068Z,7432.00
2018-05-18T05:54:56.074Z,10456.00
2018-05-18T05:55:56.065Z,7344.00
2018-05-18T05:56:56.061Z,6880.00
2018-05-18T05:57:56.059Z,6808.00
2018-05-18T05:58:56.052Z,6648.00
2018-05-18T05:59:56.047Z,6252.00
2018-05-18T06:00:56.043Z,6176.00
2018-05-18T06:01:56.041Z,6160.00
2018-05-18T06:02:56.041Z,6076.00
2018-05-18T06:03:56.038Z,6288.00
2018-05-18T06:04:56.035Z,6724.00
2018-05-18T06:05:56.034Z,6736.00
2018-05-18T06:06:56.025Z,7728.00
2018-05-18T06:07:56.022Z,6960.00
2018-05-18T06:08:56.024Z,7112.00
2018-05-18T06:09:56.021Z,7064.00
2018-05-18T06:10:56.015Z,7308.00
2018-05-18T06:11:56.010Z,7580.00
2018-05-18T06:12:56.011Z,8484.00
2018-05-18T06:13:56.006Z,12140.00
2018-05-18T06:14:56.009Z,9676.00
2018-05-18T06:15:56.004Z,8872.00
2018-05-18T06:16:56.001Z,8436.00
2018-05-18T06:17:55.998Z,8488.00
2018-05-18T06:18:55.991Z,14976.00
2018-05-18T06:19:55.989Z,16864.00
2018-05-18T06:20:55.988Z,13548.00
2018-05-18T06:21:55.985Z,9276.00
2018-05-18T06:22:55.987Z,8960.00
2018-05-18T06:23:55.984Z,8696.00
2018-05-18T06:24:55.978Z,8392.00
2018-05-18T06:25:55.977Z,8320.00
2018-05-18T06:26:55.978Z,8224.00
2018-05-18T06:27:55.978Z,8264.00
2018-05-18T06:28:55.974Z,8512.00
2018-05-18T06:29:55.973Z,9024.00
2018-05-18T06:30:55.966Z,9848.00
2018-05-18T06:31:55.963Z,10128.00
2018-05-18T06:32:55.964Z,9772.00
2018-05-18T06:33:55.961Z,9148.00
2018-05-18T06:34:56.010Z,9004.00
2018-05-18T06:35:55.961Z,9324.00
2018-05-18T06:36:55.961Z,9632.00
2018-05-18T06:37:55.959Z,9880.00
2018-05-18T06:38:55.953Z,10192.00
2018-05-18T06:39:55.950Z,10072.00
2018-05-18T06:40:55.955Z,9768.00
2018-05-18T06:41:55.955Z,9528.00
2018-05-18T06:42:55.945Z,10004.00
2018-05-18T06:43:55.944Z,12248.00
2018-05-18T06:44:55.942Z,16352.00
2018-05-18T06:45:55.940Z,27392.00
2018-05-18T06:46:55.992Z,28032.00
2018-05-18T06:47:55.940Z,26880.00
2018-05-18T06:48:55.939Z,13288.00
2018-05-18T06:49:55.940Z,12244.00
2018-05-18T06:50:55.932Z,12588.00
2018-05-18T06:51:55.931Z,12296.00
2018-05-18T06:52:55.981Z,11708.00
2018-05-18T06:53:55.932Z,11504.00
2018-05-18T06:54:55.934Z,12008.00
2018-05-18T06:55:55.933Z,13448.00
2018-05-18T06:56:55.928Z,15236.00
2018-05-18T06:57:55.927Z,17376.00
2018-05-18T06:58:55.932Z,18784.00
2018-05-18T06:59:55.931Z,25600.00
2018-05-18T07:00:55.933Z,28128.00
2018-05-18T07:01:55.931Z,16896.00
2018-05-18T07:02:55.928Z,22112.00
2018-05-18T07:03:55.928Z,20288.00
2018-05-18T07:04:55.927Z,12240.00
2018-05-18T07:05:55.934Z,11656.00
2018-05-18T07:06:55.931Z,12588.00
2018-05-18T07:07:55.932Z,13748.00
2018-05-18T07:08:55.934Z,25920.00
2018-05-18T07:09:55.935Z,27104.00
2018-05-18T07:10:55.931Z,27264.00
2018-05-18T07:11:55.934Z,19392.00
2018-05-18T07:12:55.936Z,54368.00
2018-05-18T07:13:55.939Z,54528.00
2018-05-18T07:14:55.933Z,50816.00
2018-05-18T07:15:55.936Z,52096.00
2018-05-18T07:16:55.936Z,56224.00
2018-05-18T07:17:55.938Z,60800.00
2018-05-18T07:18:55.945Z,63360.00
2018-05-18T07:19:55.947Z,64736.00
2018-05-18T07:20:55.951Z,68800.00
2018-05-18T07:21:55.953Z,67328.00
2018-05-18T07:22:56.001Z,61312.00
2018-05-18T07:23:55.956Z,64160.00
2018-05-18T07:24:55.960Z,68352.00
2018-05-18T07:25:55.964Z,68864.00
2018-05-18T07:26:55.974Z,70240.00
2018-05-18T07:27:55.978Z,66848.00
2018-05-18T07:28:55.979Z,65120.00
2018-05-18T07:29:55.986Z,72032.00
2018-05-18T07:30:55.996Z,74368.00
2018-05-18T07:31:56.007Z,74688.00
2018-05-18T07:32:56.006Z,83488.00
2018-05-18T07:33:56.012Z,84352.00
2018-05-18T07:34:56.019Z,76256.00
2018-05-18T07:35:56.021Z,76384.00
2018-05-18T07:36:56.028Z,75808.00
2018-05-18T07:37:56.036Z,75104.00
2018-05-18T07:38:56.047Z,69568.00
2018-05-18T07:39:56.052Z,64800.00
2018-05-18T07:40:56.062Z,65664.00
2018-05-18T07:41:56.069Z,67040.00
2018-05-18T07:42:56.083Z,66272.00
2018-05-18T07:43:56.143Z,65856.00
2018-05-18T07:44:56.095Z,66528.00
2018-05-18T07:45:56.103Z,70400.00
2018-05-18T07:46:56.108Z,51648.00
2018-05-18T07:47:56.119Z,31424.00
2018-05-18T07:48:56.125Z,67744.00
2018-05-18T07:49:56.134Z,66880.00
2018-05-18T07:50:56.148Z,31680.00
2018-05-18T07:51:56.158Z,19936.00
2018-05-18T07:52:56.169Z,20576.00
2018-05-18T07:53:56.180Z,23616.00
2018-05-18T07:54:56.184Z,51168.00
2018-05-18T07:55:56.194Z,59072.00
2018-05-18T07:56:56.206Z,59584.00
2018-05-18T07:57:56.219Z,58912.00
2018-05-18T07:58:56.229Z,48576.00
2018-05-18T07:59:56.242Z,25888.00
2018-05-18T08:00:56.247Z,32096.00
2018-05-18T08:01:56.257Z,28224.00
2018-05-18T08:02:56.273Z,46048.00
2018-05-18T08:03:56.283Z,37280.00
2018-05-18T08:04:56.296Z,51424.00
2018-05-18T08:05:56.308Z,23488.00
2018-05-18T08:06:56.312Z,29440.00
2018-05-18T08:07:56.356Z,25024.00
2018-05-18T08:08:56.335Z,34368.00
2018-05-18T08:09:56.345Z,35328.00
2018-05-18T08:10:56.361Z,20320.00
2018-05-18T08:11:56.372Z,19488.00
2018-05-18T08:12:56.382Z,20800.00
2018-05-18T08:13:56.392Z,55264.00
2018-05-18T08:14:56.398Z,19808.00
2018-05-18T08:15:56.407Z,17504.00
2018-05-18T08:16:56.421Z,18816.00
2018-05-18T08:17:56.431Z,17536.00
2018-05-18T08:18:56.439Z,41856.00
2018-05-18T08:19:56.445Z,20064.00
2018-05-18T08:20:56.454Z,17568.00
2018-05-18T08:21:56.468Z,19360.00
2018-05-18T08:22:56.477Z,22720.00
2018-05-18T08:23:56.485Z,23392.00
2018-05-18T08:24:56.494Z,27232.00
2018-05-18T08:25:56.503Z,23456.00
2018-05-18T08:26:56.506Z,58304.00
2018-05-18T08:27:56.514Z,48384.00
2018-05-18T08:28:56.523Z,61440.00
2018-05-18T08:29:56.530Z,61760.00
2018-05-18T08:30:56.543Z,61984.00
2018-05-18T08:31:56.552Z,55264.00
2018-05-18T08:32:56.557Z,34848.00
2018-05-18T08:33:56.566Z,24096.00
2018-05-18T08:34:56.579Z,24224.00
2018-05-18T08:35:56.589Z,26592.00
2018-05-18T08:36:56.604Z,31456.00
2018-05-18T08:37:56.611Z,27104.00
2018-05-18T08:38:56.615Z,41696.00
2018-05-18T08:39:56.625Z,45056.00
2018-05-18T08:40:56.636Z,62080.00
2018-05-18T08:41:56.648Z,60800.00
2018-05-18T08:42:56.661Z,58176.00
2018-05-18T08:43:56.672Z,59744.00
2018-05-18T08:44:56.684Z,62944.00
2018-05-18T08:45:56.694Z,29600.00
2018-05-18T08:46:56.700Z,31168.00
2018-05-18T08:47:56.712Z,66560.00
2018-05-18T08:48:56.730Z,63904.00
2018-05-18T08:49:56.742Z,60384.00
2018-05-18T08:50:56.750Z,60352.00
2018-05-18T08:51:56.763Z,60800.00
2018-05-18T08:52:56.776Z,59840.00
2018-05-18T08:53:56.790Z,59680.00
2018-05-18T08:54:56.808Z,59136.00
2018-05-18T08:55:56.822Z,58144.00
2018-05-18T08:56:56.838Z,57856.00
2018-05-18T08:57:56.852Z,58464.00
2018-05-18T08:58:56.860Z,57504.00
2018-05-18T08:59:56.875Z,57344.00
2018-05-18T09:00:56.891Z,55872.00
2018-05-18T09:01:56.907Z,57152.00
2018-05-18T09:02:56.927Z,55584.00
2018-05-18T09:03:56.942Z,52768.00
2018-05-18T09:04:56.954Z,51616.00
2018-05-18T09:05:56.971Z,53024.00
2018-05-18T09:06:56.992Z,56000.00
2018-05-18T09:07:57.008Z,57344.00
2018-05-18T09:08:57.074Z,60032.00
2018-05-18T09:09:57.040Z,57152.00
2018-05-18T09:10:57.052Z,23296.00
2018-05-18T09:11:57.069Z,52192.00
2018-05-18T09:12:57.085Z,39328.00
2018-05-18T09:13:57.102Z,23840.00
2018-05-18T09:14:57.122Z,26336.00
2018-05-18T09:15:57.143Z,26528.00
2018-05-18T09:16:57.157Z,26720.00
2018-05-18T09:17:57.171Z,30272.00
2018-05-18T09:18:57.181Z,24448.00
2018-05-18T09:19:57.197Z,23072.00
2018-05-18T09:20:57.217Z,45664.00
2018-05-18T09:21:57.233Z,47936.00
2018-05-18T09:22:57.242Z,47392.00
2018-05-18T09:23:57.254Z,48384.00
2018-05-18T09:24:57.269Z,46336.00
2018-05-18T09:25:57.283Z,47744.00
2018-05-18T09:26:57.301Z,47712.00
2018-05-18T09:27:57.315Z,44864.00
2018-05-18T09:28:57.335Z,24224.00
2018-05-18T09:29:57.345Z,44960.00
2018-05-18T09:30:57.355Z,41120.00
2018-05-18T09:31:57.369Z,36448.00
2018-05-18T09:32:57.385Z,30816.00
2018-05-18T09:33:57.486Z,28608.00
2018-05-18T09:34:57.418Z,27936.00
2018-05-18T09:35:57.434Z,27488.00
2018-05-18T09:36:57.445Z,47776.00
2018-05-18T09:37:57.458Z,34592.00
2018-05-18T09:38:57.478Z,48256.00
2018-05-18T09:39:57.492Z,24864.00
2018-05-18T09:40:57.505Z,74400.00
2018-05-18T09:41:57.522Z,87616.00
2018-05-18T09:42:57.530Z,69216.00
2018-05-18T09:43:57.544Z,25504.00
2018-05-18T09:44:57.560Z,33536.00
2018-05-18T09:45:57.574Z,65952.00
2018-05-18T09:46:57.593Z,48288.00
2018-05-18T09:47:57.608Z,75904.00
2018-05-18T09:48:57.624Z,80960.00
2018-05-18T09:49:57.637Z,71008.00
2018-05-18T09:50:57.650Z,74112.00
2018-05-18T09:51:57.662Z,67264.00
2018-05-18T09:52:57.681Z,35616.00
2018-05-18T09:53:57.795Z,34368.00
2018-05-18T09:54:57.960Z,76928.00
2018-05-18T09:55:57.725Z,61408.00
2018-05-18T09:56:57.736Z,35712.00
2018-05-18T09:57:57.751Z,83136.00
2018-05-18T09:58:57.771Z,81824.00
2018-05-18T09:59:57.786Z,75040.00
2018-05-18T10:00:57.801Z,74304.00
2018-05-18T10:01:57.820Z,26944.00
2018-05-18T10:02:57.826Z,81184.00
2018-05-18T10:03:57.841Z,74944.00
2018-05-18T10:04:57.857Z,74848.00
2018-05-18T10:05:57.872Z,75232.00
2018-05-18T10:06:57.929Z,71776.00
2018-05-18T10:07:57.909Z,71808.00
2018-05-18T10:08:57.919Z,70304.00
2018-05-18T10:09:57.935Z,70464.00
2018-05-18T10:10:57.956Z,69440.00
2018-05-18T10:11:57.971Z,68128.00
2018-05-18T10:12:57.987Z,65216.00
2018-05-18T10:13:58.003Z,65984.00
2018-05-18T10:14:58.015Z,66304.00
2018-05-18T10:15:58.031Z,65376.00
2018-05-18T10:16:58.048Z,61152.00
2018-05-18T10:17:58.065Z,60096.00
2018-05-18T10:18:58.086Z,62080.00
2018-05-18T10:19:58.102Z,62368.00
2018-05-18T10:20:58.117Z,61408.00
2018-05-18T10:21:58.135Z,62528.00
2018-05-18T10:22:58.146Z,61216.00
2018-05-18T10:23:58.164Z,61312.00
2018-05-18T10:24:58.187Z,61408.00
2018-05-18T10:25:58.203Z,28032.00
2018-05-18T10:26:58.279Z,23232.00
2018-05-18T10:27:58.230Z,25472.00
2018-05-18T10:28:58.248Z,36032.00
2018-05-18T10:29:58.264Z,22528.00
2018-05-18T10:30:58.285Z,22112.00
2018-05-18T10:31:58.300Z,49408.00
2018-05-18T10:32:58.325Z,26528.00
2018-05-18T10:33:58.332Z,66752.00
2018-05-18T10:34:58.344Z,26688.00
2018-05-18T10:35:58.358Z,21280.00
2018-05-18T10:36:58.375Z,52608.00
2018-05-18T10:37:58.388Z,37824.00
2018-05-18T10:38:58.408Z,62560.00
2018-05-18T10:39:58.424Z,60864.00
2018-05-18T10:40:58.431Z,61920.00
2018-05-18T10:41:58.446Z,62496.00
2018-05-18T10:42:58.465Z,63456.00
2018-05-18T10:43:58.479Z,64544.00
2018-05-18T10:44:58.493Z,65440.00
2018-05-18T10:45:58.511Z,65888.00
2018-05-18T10:46:58.520Z,66656.00
2018-05-18T10:47:58.532Z,66848.00
2018-05-18T10:48:58.575Z,67136.00
2018-05-18T10:49:58.561Z,65760.00
2018-05-18T10:50:58.580Z,68032.00
2018-05-18T10:51:58.595Z,70112.00
2018-05-18T10:52:58.647Z,72448.00
2018-05-18T10:53:58.625Z,37920.00
2018-05-18T10:54:58.633Z,26112.00
2018-05-18T10:55:58.650Z,69696.00
2018-05-18T10:56:58.668Z,62656.00
2018-05-18T10:57:58.684Z,74912.00
2018-05-18T10:58:58.696Z,76928.00
2018-05-18T10:59:58.709Z,80448.00
2018-05-18T11:00:58.724Z,44480.00
2018-05-18T11:01:58.742Z,29472.00
2018-05-18T11:02:58.756Z,51840.00
2018-05-18T11:03:58.771Z,77024.00
2018-05-18T11:04:58.783Z,77280.00
2018-05-18T11:05:58.796Z,82272.00
2018-05-18T11:06:58.875Z,85056.00
2018-05-18T11:07:58.828Z,82880.00
2018-05-18T11:08:58.843Z,82432.00
2018-05-18T11:09:58.857Z,84352.00
2018-05-18T11:10:58.867Z,83136.00
2018-05-18T11:11:58.881Z,92320.00
2018-05-18T11:12:58.906Z,93824.00
2018-05-18T11:13:59.045Z,87360.00
2018-05-18T11:14:58.929Z,85184.00
2018-05-18T11:15:58.939Z,91808.00
2018-05-18T11:16:58.954Z,59328.00
2018-05-18T11:17:58.968Z,26208.00
2018-05-18T11:18:58.985Z,22528.00
2018-05-18T11:19:59.021Z,19552.00
2018-05-18T11:20:59.014Z,19552.00
2018-05-18T11:21:59.028Z,17984.00
2018-05-18T11:22:59.036Z,13796.00
2018-05-18T11:23:59.050Z,13168.00
2018-05-18T11:24:59.063Z,13764.00
2018-05-18T11:25:59.075Z,15300.00
2018-05-18T11:26:59.092Z,17024.00
2018-05-18T11:27:59.102Z,17600.00
2018-05-18T11:28:59.109Z,18240.00
2018-05-18T11:29:59.120Z,17728.00
2018-05-18T11:30:59.137Z,16032.00
2018-05-18T11:31:59.146Z,16064.00
2018-05-18T11:32:59.208Z,14204.00
2018-05-18T11:33:59.175Z,13276.00
2018-05-18T11:34:59.168Z,12124.00
2018-05-18T11:35:59.177Z,11476.00
2018-05-18T11:36:59.185Z,11220.00
2018-05-18T11:37:59.194Z,11052.00
2018-05-18T11:38:59.205Z,10740.00
2018-05-18T11:39:59.215Z,10036.00
2018-05-18T11:40:59.223Z,11252.00
2018-05-18T11:41:59.231Z,11100.00
2018-05-18T11:42:59.231Z,10724.00
2018-05-18T11:43:59.239Z,10916.00
2018-05-18T11:44:59.252Z,11068.00
2018-05-18T11:45:59.258Z,11152.00
2018-05-18T11:46:59.263Z,11376.00
2018-05-18T11:47:59.267Z,11460.00
2018-05-18T11:48:59.271Z,11288.00
2018-05-18T11:49:59.279Z,10444.00
2018-05-18T11:50:59.287Z,10020.00
2018-05-18T11:51:59.294Z,10144.00
2018-05-18T11:52:59.300Z,10552.00
2018-05-18T11:53:59.306Z,10368.00
2018-05-18T11:54:59.307Z,8976.00
2018-05-18T11:55:59.312Z,8460.00
2018-05-18T11:56:59.319Z,9456.00
2018-05-18T11:57:59.323Z,10048.00
2018-05-18T11:58:59.334Z,9892.00
2018-05-18T11:59:59.338Z,9872.00
2018-05-18T12:00:59.339Z,10276.00
2018-05-18T12:01:59.345Z,9848.00
2018-05-18T12:02:59.369Z,8076.00
2018-05-18T12:03:59.359Z,8016.00
2018-05-18T12:04:59.363Z,7480.00
2018-05-18T12:05:59.367Z,7896.00
2018-05-18T12:06:59.371Z,8032.00
2018-05-18T12:07:59.371Z,8936.00
2018-05-18T12:08:59.375Z,8688.00
2018-05-18T12:09:59.381Z,8620.00
2018-05-18T12:10:59.388Z,8692.00
2018-05-18T12:11:59.394Z,8716.00
2018-05-18T12:12:59.399Z,8768.00
2018-05-18T12:13:59.406Z,8780.00
2018-05-18T12:14:59.403Z,8760.00
2018-05-18T12:15:59.404Z,9396.00
2018-05-18T12:16:59.417Z,10220.00
2018-05-18T12:17:59.417Z,10312.00